Time;durP1;ratioP1;P1;durP2;ratioP2;P2;SDS_P1;SDS_P2;PMS_P1;PMS_P2;Temp;Humidity;BMP_temperature;BMP_pressure;BME280_temperature;BME280_humidity;BME280_pressure;Samples;Min_cycle;Max_cycle;Signal;HPM_P1;HPM_P2
2024/01/29 00:00:03;;;;;;;27.23;18.47;;;;;21.40;101384.00;;;;2057466;28;20562;-61
2024/01/29 00:01:03;;;;;;;26.70;17.38;;;;;21.40;101383.00;;;;2060736;28;20211;-61
2024/01/29 00:02:05;;;;;;;25.92;18.88;;;;;21.40;101394.00;;;;2058928;28;21940;-61
2024/01/29 00:03:06;;;;;;;27.83;18.23;;;;;21.40;101384.00;;;;2060959;28;20211;-61
2024/01/29 00:04:06;;;;;;;25.60;18.33;;;;;21.40;101390.00;;;;2049706;28;20261;-61
2024/01/29 00:05:06;;;;;;;28.70;19.53;;;;;21.40;101390.00;;;;2061737;28;20223;-61
2024/01/29 00:06:07;;;;;;;30.13;18.23;;;;;21.40;101385.00;;;;2061991;28;20219;-61
2024/01/29 00:07:07;;;;;;;26.90;17.20;;;;;21.40;101379.00;;;;2062602;28;20222;-61
2024/01/29 00:08:07;;;;;;;27.20;17.87;;;;;21.40;101392.00;;;;2063605;28;20241;-61
2024/01/29 00:09:08;;;;;;;25.37;17.63;;;;;21.40;101397.00;;;;2044845;28;20231;-60
2024/01/29 00:10:08;;;;;;;24.60;16.40;;;;;21.40;101385.00;;;;2054738;28;20227;-60
2024/01/29 00:11:09;;;;;;;29.93;17.90;;;;;21.40;101389.00;;;;2062852;28;20249;-60
2024/01/29 00:12:09;;;;;;;22.90;16.90;;;;;21.40;101384.00;;;;2063298;28;20249;-60
2024/01/29 00:13:09;;;;;;;26.00;17.03;;;;;21.40;101387.00;;;;2063491;28;20682;-61
2024/01/29 00:14:10;;;;;;;26.03;17.70;;;;;21.40;101391.00;;;;2052774;28;20587;-60
2024/01/29 00:15:10;;;;;;;24.37;18.13;;;;;21.40;101388.00;;;;2061935;28;20246;-60
2024/01/29 00:16:10;;;;;;;25.47;17.57;;;;;21.40;101383.00;;;;2063620;28;20221;-61
2024/01/29 00:17:10;;;;;;;26.40;16.57;;;;;21.30;101389.00;;;;2067462;28;20214;-61
2024/01/29 00:18:11;;;;;;;28.37;17.07;;;;;21.30;101386.00;;;;2055260;28;20315;-61
2024/01/29 00:19:11;;;;;;;25.80;16.47;;;;;21.40;101383.00;;;;2042973;28;20305;-61
2024/01/29 00:20:12;;;;;;;23.33;16.17;;;;;21.30;101380.00;;;;2062010;28;20295;-61
2024/01/29 00:21:12;;;;;;;26.43;16.70;;;;;21.40;101380.00;;;;2062644;28;20326;-61
2024/01/29 00:22:13;;;;;;;25.10;16.30;;;;;21.30;101380.00;;;;2063369;28;20215;-61
2024/01/29 00:23:14;;;;;;;24.80;15.13;;;;;21.30;101382.00;;;;2061939;28;20461;-61
2024/01/29 00:24:14;;;;;;;25.40;16.55;;;;;21.30;101389.00;;;;2048374;28;20227;-61
2024/01/29 00:25:14;;;;;;;23.67;16.60;;;;;21.30;101380.00;;;;2061189;28;20225;-61
2024/01/29 00:26:15;;;;;;;20.77;14.13;;;;;21.30;101383.00;;;;2062759;28;20238;-61
2024/01/29 00:27:15;;;;;;;23.97;16.53;;;;;21.30;101385.00;;;;2054723;28;20277;-61
2024/01/29 00:28:15;;;;;;;22.10;15.70;;;;;21.30;101379.00;;;;2048293;28;20214;-61
2024/01/29 00:29:16;;;;;;;22.27;14.80;;;;;21.30;101388.00;;;;2048858;28;20559;-61
2024/01/29 00:30:16;;;;;;;23.17;16.03;;;;;21.30;101384.00;;;;2063409;28;20996;-61
2024/01/29 00:31:16;;;;;;;21.70;15.30;;;;;21.30;101384.00;;;;2063388;28;20729;-61
2024/01/29 00:32:17;;;;;;;21.40;14.20;;;;;21.30;101378.00;;;;2063583;28;20305;-60
2024/01/29 00:33:18;;;;;;;23.03;15.30;;;;;21.30;101376.00;;;;2053039;28;20286;-61
2024/01/29 00:34:19;;;;;;;22.07;15.53;;;;;21.30;101381.00;;;;2045162;28;20250;-61
2024/01/29 00:35:20;;;;;;;23.42;14.77;;;;;21.30;101373.00;;;;2061662;28;20458;-61
2024/01/29 00:36:20;;;;;;;21.63;14.93;;;;;21.30;101367.00;;;;2063637;28;20249;-61
2024/01/29 00:37:22;;;;;;;23.37;14.77;;;;;21.30;101370.00;;;;2063184;28;20218;-61
2024/01/29 00:38:23;;;;;;;22.80;15.25;;;;;21.30;101378.00;;;;2058950;28;20333;-61
2024/01/29 00:39:23;;;;;;;19.80;14.07;;;;;21.30;101381.00;;;;2053604;28;20218;-61
2024/01/29 00:40:25;;;;;;;19.40;13.97;;;;;21.30;101375.00;;;;2061804;28;20242;-61
2024/01/29 00:41:25;;;;;;;18.55;13.50;;;;;21.30;101371.00;;;;2063291;28;20613;-61
2024/01/29 00:42:25;;;;;;;20.43;14.87;;;;;21.30;101370.00;;;;2060220;28;20222;-61
2024/01/29 00:43:26;;;;;;;21.13;13.90;;;;;21.30;101377.00;;;;2059254;28;20226;-61
2024/01/29 00:44:26;;;;;;;19.03;14.20;;;;;21.30;101376.00;;;;2045612;28;20241;-61
2024/01/29 00:45:27;;;;;;;20.80;13.70;;;;;21.30;101374.00;;;;2056555;28;20317;-61
2024/01/29 00:46:27;;;;;;;18.83;12.80;;;;;21.20;101375.00;;;;2060955;28;20222;-61
2024/01/29 00:47:27;;;;;;;21.10;13.30;;;;;21.20;101376.00;;;;2054218;28;20683;-61
2024/01/29 00:48:28;;;;;;;22.27;13.83;;;;;21.30;101381.00;;;;2059370;28;20288;-61
2024/01/29 00:49:31;;;;;;;17.87;12.83;;;;;21.30;101384.00;;;;2052356;28;20222;-61
2024/01/29 00:50:31;;;;;;;18.73;12.45;;;;;21.20;101374.00;;;;2061318;28;20277;-61
2024/01/29 00:51:32;;;;;;;19.70;13.13;;;;;21.20;101387.00;;;;2062111;28;20211;-61
2024/01/29 00:52:33;;;;;;;19.07;13.37;;;;;21.30;101383.00;;;;2056072;28;20210;-61
2024/01/29 00:53:33;;;;;;;18.17;12.25;;;;;21.20;101378.00;;;;2062845;28;20235;-61
2024/01/29 00:54:33;;;;;;;16.73;12.30;;;;;21.20;101381.00;;;;2051915;28;20207;-61
2024/01/29 00:55:34;;;;;;;18.00;12.97;;;;;21.20;101378.00;;;;2063100;28;20250;-60
2024/01/29 00:56:34;;;;;;;21.53;13.93;;;;;21.20;101380.00;;;;2062888;28;20211;-61
2024/01/29 00:57:34;;;;;;;17.03;12.20;;;;;21.20;101383.00;;;;2063218;28;20215;-60
2024/01/29 00:58:35;;;;;;;18.53;11.70;;;;;21.20;101386.00;;;;2063124;28;20721;-61
2024/01/29 00:59:35;;;;;;;20.43;13.00;;;;;21.20;101384.00;;;;2055098;28;20623;-60
2024/01/29 01:00:38;;;;;;;17.87;11.97;;;;;21.20;101385.00;;;;2063361;28;20576;-60
2024/01/29 01:01:38;;;;;;;17.75;11.68;;;;;21.20;101378.00;;;;2061204;28;20215;-61
2024/01/29 01:02:39;;;;;;;19.47;11.73;;;;;21.20;101387.00;;;;2063148;28;20219;-61
2024/01/29 01:03:39;;;;;;;21.00;11.57;;;;;21.20;101390.00;;;;2053718;28;20246;-61
2024/01/29 01:04:39;;;;;;;18.33;12.43;;;;;21.20;101383.00;;;;2060729;28;20238;-61
2024/01/29 01:05:40;;;;;;;17.70;11.13;;;;;21.10;101379.00;;;;2060934;28;20211;-60
2024/01/29 01:06:40;;;;;;;18.07;12.73;;;;;21.20;101380.00;;;;2061470;28;20249;-60
2024/01/29 01:07:41;;;;;;;16.23;10.60;;;;;21.20;101381.00;;;;2054608;28;20219;-61
2024/01/29 01:08:41;;;;;;;16.37;11.30;;;;;21.20;101385.00;;;;2044930;28;20222;-61
2024/01/29 01:09:41;;;;;;;16.70;11.70;;;;;21.20;101383.00;;;;2062391;28;20285;-61
2024/01/29 01:10:42;;;;;;;16.30;10.73;;;;;21.10;101383.00;;;;2063402;28;20211;-61
2024/01/29 01:11:42;;;;;;;16.87;10.40;;;;;21.10;101380.00;;;;2061534;28;20691;-61
2024/01/29 01:12:43;;;;;;;16.30;11.20;;;;;21.20;101385.00;;;;2060958;28;20214;-61
2024/01/29 01:13:43;;;;;;;17.20;11.00;;;;;21.20;101387.00;;;;2052318;28;20207;-61
2024/01/29 01:14:43;;;;;;;17.63;11.47;;;;;21.10;101373.00;;;;2061359;28;20245;-61
2024/01/29 01:15:44;;;;;;;15.67;11.47;;;;;21.20;101383.00;;;;2061976;28;20203;-61
2024/01/29 01:16:44;;;;;;;17.23;11.20;;;;;21.10;101377.00;;;;2061646;28;20250;-61
2024/01/29 01:17:45;;;;;;;16.33;10.13;;;;;21.10;101383.00;;;;2062132;28;20219;-61
2024/01/29 01:18:45;;;;;;;15.60;10.60;;;;;21.10;101394.00;;;;2050399;28;20249;-61
2024/01/29 01:19:46;;;;;;;14.73;10.00;;;;;21.10;101373.00;;;;2057034;28;20702;-61
2024/01/29 01:20:46;;;;;;;15.53;10.70;;;;;21.10;101382.00;;;;2059876;28;20718;-61
2024/01/29 01:21:47;;;;;;;16.57;10.73;;;;;21.10;101380.00;;;;2060881;28;20867;-61
2024/01/29 01:22:47;;;;;;;15.25;10.30;;;;;21.10;101385.00;;;;2061633;28;20234;-61
2024/01/29 01:23:48;;;;;;;15.20;10.87;;;;;21.10;101388.00;;;;2051307;28;20273;-61
2024/01/29 01:24:48;;;;;;;14.50;10.13;;;;;21.10;101384.00;;;;2060242;28;20219;-61
2024/01/29 01:25:48;;;;;;;17.40;10.10;;;;;21.10;101387.00;;;;2061497;28;20234;-61
2024/01/29 01:26:49;;;;;;;14.03;9.73;;;;;21.10;101389.00;;;;2061261;28;20233;-61
2024/01/29 01:27:53;;;;;;;13.87;10.03;;;;;21.10;101387.00;;;;2061934;28;20219;-61
2024/01/29 01:28:54;;;;;;;16.83;10.60;;;;;21.10;101386.00;;;;2047933;28;20226;-61
2024/01/29 01:29:54;;;;;;;18.60;11.00;;;;;21.10;101383.00;;;;2061758;28;20369;-61
2024/01/29 01:30:55;;;;;;;12.47;8.50;;;;;21.10;101384.00;;;;2052397;28;20227;-61
2024/01/29 01:31:55;;;;;;;14.30;10.07;;;;;21.10;101387.00;;;;2051930;28;20211;-61
2024/01/29 01:32:55;;;;;;;12.97;8.70;;;;;21.10;101393.00;;;;2060849;28;20258;-61
2024/01/29 01:33:56;;;;;;;15.77;10.10;;;;;21.10;101395.00;;;;2042524;28;20232;-61
2024/01/29 01:34:57;;;;;;;13.27;8.82;;;;;21.00;101389.00;;;;2050144;28;20669;-61
2024/01/29 01:35:57;;;;;;;12.27;8.73;;;;;20.70;101394.00;;;;2061502;28;20249;-61
2024/01/29 01:36:57;;;;;;;13.47;9.67;;;;;21.10;101393.00;;;;2061989;28;20235;-61
2024/01/29 01:37:58;;;;;;;13.40;8.80;;;;;21.10;101400.00;;;;2061505;28;20699;-61
2024/01/29 01:38:58;;;;;;;15.17;9.27;;;;;21.10;101401.00;;;;2051799;28;20226;-61
2024/01/29 01:39:58;;;;;;;12.20;8.43;;;;;21.10;101398.00;;;;2062299;28;20225;-61
2024/01/29 01:40:59;;;;;;;14.50;9.03;;;;;21.10;101397.00;;;;2060886;28;20230;-61
2024/01/29 01:41:59;;;;;;;12.53;9.17;;;;;21.10;101403.00;;;;2062193;28;20291;-61
2024/01/29 01:43:02;;;;;;;13.37;9.27;;;;;21.10;101401.00;;;;2060826;28;20234;-61
2024/01/29 01:44:03;;;;;;;13.23;8.38;;;;;21.10;101396.00;;;;2038598;28;20325;-61
2024/01/29 01:45:03;;;;;;;13.47;8.67;;;;;21.10;101403.00;;;;2042388;28;20836;-61
2024/01/29 01:46:04;;;;;;;10.87;7.80;;;;;21.10;101405.00;;;;2048934;28;20216;-61
2024/01/29 01:47:04;;;;;;;12.87;8.40;;;;;21.10;101404.00;;;;2058971;28;20222;-61
2024/01/29 01:48:05;;;;;;;14.30;8.83;;;;;21.00;101400.00;;;;2053720;28;20262;-61
2024/01/29 01:49:05;;;;;;;12.80;8.27;;;;;21.00;101403.00;;;;2042957;28;20215;-61
2024/01/29 01:50:07;;;;;;;12.67;8.60;;;;;21.10;101401.00;;;;2049779;28;20250;-66
2024/01/29 01:51:08;;;;;;;13.52;9.13;;;;;21.00;101398.00;;;;2045752;28;20316;-61
2024/01/29 01:52:08;;;;;;;11.77;8.33;;;;;21.00;101406.00;;;;2057581;28;20265;-61
2024/01/29 01:53:08;;;;;;;12.90;8.40;;;;;21.00;101402.00;;;;2058950;28;20615;-61
2024/01/29 01:54:09;;;;;;;12.37;8.60;;;;;21.00;101400.00;;;;2051181;28;20223;-62
2024/01/29 01:55:09;;;;;;;12.07;7.97;;;;;21.00;101403.00;;;;2048530;28;20224;-61
2024/01/29 01:56:09;;;;;;;12.53;8.13;;;;;21.00;101396.00;;;;2052312;28;20301;-62
2024/01/29 01:57:10;;;;;;;9.10;7.53;;;;;21.00;101403.00;;;;2046319;28;20224;-61
2024/01/29 01:58:10;;;;;;;9.63;7.63;;;;;21.00;101411.00;;;;2050910;28;20226;-62
2024/01/29 01:59:11;;;;;;;12.20;8.63;;;;;21.00;101412.00;;;;2041031;28;20226;-61
2024/01/29 02:00:11;;;;;;;11.97;7.77;;;;;21.00;101404.00;;;;2045224;28;20239;-63
2024/01/29 02:01:12;;;;;;;11.80;7.90;;;;;21.00;101407.00;;;;2051880;28;20301;-61
2024/01/29 02:02:13;;;;;;;11.63;8.40;;;;;21.00;101406.00;;;;2057406;28;20450;-61
2024/01/29 02:03:13;;;;;;;11.93;8.03;;;;;21.00;101404.00;;;;2052608;28;20455;-61
2024/01/29 02:04:13;;;;;;;13.07;8.60;;;;;21.00;101417.00;;;;2034363;28;20263;-61
2024/01/29 02:05:14;;;;;;;9.73;7.00;;;;;21.00;101418.00;;;;2051060;28;20212;-61
2024/01/29 02:06:14;;;;;;;12.70;7.90;;;;;20.60;101413.00;;;;2061481;28;20229;-61
2024/01/29 02:07:14;;;;;;;11.50;7.40;;;;;21.00;101418.00;;;;2052591;28;20239;-61
2024/01/29 02:08:15;;;;;;;9.20;6.67;;;;;21.00;101410.00;;;;2051286;28;20275;-61
2024/01/29 02:09:15;;;;;;;12.37;7.97;;;;;21.00;101409.00;;;;2050404;28;20226;-61
2024/01/29 02:10:15;;;;;;;10.87;7.40;;;;;21.00;101411.00;;;;2051542;28;20223;-61
2024/01/29 02:11:16;;;;;;;12.00;7.60;;;;;21.00;101417.00;;;;2061272;28;20676;-61
2024/01/29 02:12:17;;;;;;;10.00;7.17;;;;;21.00;101415.00;;;;2050903;28;20721;-61
2024/01/29 02:13:17;;;;;;;9.65;7.07;;;;;21.00;101408.00;;;;2052871;28;20567;-61
2024/01/29 02:14:18;;;;;;;10.13;7.30;;;;;21.00;101417.00;;;;2048986;28;20265;-61
2024/01/29 02:15:18;;;;;;;10.63;6.50;;;;;21.00;101414.00;;;;2058128;28;20211;-61
2024/01/29 02:16:18;;;;;;;10.23;6.90;;;;;21.00;101421.00;;;;2052245;28;20211;-61
2024/01/29 02:17:19;;;;;;;10.00;6.97;;;;;21.00;101419.00;;;;2053048;28;20212;-61
2024/01/29 02:18:19;;;;;;;10.00;6.63;;;;;21.00;101416.00;;;;2051175;28;20294;-61
2024/01/29 02:19:20;;;;;;;10.30;6.33;;;;;21.00;101417.00;;;;2034933;28;20239;-61
2024/01/29 02:20:20;;;;;;;8.43;5.93;;;;;21.00;101411.00;;;;2050282;28;20219;-61
2024/01/29 02:21:21;;;;;;;10.37;6.43;;;;;21.00;101415.00;;;;2060904;28;20462;-61
2024/01/29 02:22:21;;;;;;;10.97;7.00;;;;;20.90;101411.00;;;;2061735;28;20593;-61
2024/01/29 02:23:21;;;;;;;10.53;7.07;;;;;20.90;101409.00;;;;2058861;28;20589;-61
2024/01/29 02:24:22;;;;;;;8.60;5.80;;;;;20.90;101419.00;;;;2050217;28;20643;-60
2024/01/29 02:25:22;;;;;;;10.27;5.50;;;;;20.90;101417.00;;;;2061446;28;20250;-61
2024/01/29 02:26:22;;;;;;;12.67;7.23;;;;;20.90;101412.00;;;;2060897;28;20235;-61
2024/01/29 02:27:23;;;;;;;9.30;6.03;;;;;20.90;101421.00;;;;2060881;28;20211;-61
2024/01/29 02:28:24;;;;;;;8.80;6.13;;;;;20.90;101420.00;;;;2058593;28;20250;-61
2024/01/29 02:29:25;;;;;;;7.43;5.60;;;;;20.90;101417.00;;;;2051177;28;20613;-61
2024/01/29 02:30:25;;;;;;;9.13;6.03;;;;;20.90;101422.00;;;;2061156;28;20225;-61
2024/01/29 02:31:26;;;;;;;8.80;5.37;;;;;20.90;101418.00;;;;2052492;28;20227;-61
2024/01/29 02:32:26;;;;;;;8.37;5.77;;;;;20.90;101418.00;;;;2052902;28;20246;-61
2024/01/29 02:33:27;;;;;;;8.70;5.47;;;;;20.90;101417.00;;;;2059278;28;20524;-61
2024/01/29 02:34:27;;;;;;;9.90;5.90;;;;;20.90;101426.00;;;;2050273;28;20214;-61
2024/01/29 02:35:27;;;;;;;7.50;5.23;;;;;20.90;101421.00;;;;2058592;28;20698;-61
2024/01/29 02:36:28;;;;;;;8.90;6.30;;;;;20.90;101456.00;;;;2061583;28;20246;-61
2024/01/29 02:37:28;;;;;;;8.40;5.63;;;;;20.90;101419.00;;;;2061313;28;20633;-61
2024/01/29 02:38:28;;;;;;;9.57;6.00;;;;;20.90;101417.00;;;;2064110;28;20624;-61
2024/01/29 02:39:28;;;;;;;8.40;5.57;;;;;20.90;101417.00;;;;2051584;28;20679;-61
2024/01/29 02:40:29;;;;;;;9.00;5.20;;;;;20.90;101413.00;;;;2060999;28;20730;-61
2024/01/29 02:41:29;;;;;;;8.53;5.87;;;;;20.90;101419.00;;;;2059687;28;21052;-61
2024/01/29 02:42:30;;;;;;;7.50;4.97;;;;;20.90;101415.00;;;;2060799;28;21691;-61
2024/01/29 02:43:30;;;;;;;8.13;5.03;;;;;20.90;101412.00;;;;2060953;28;20766;-61
2024/01/29 02:44:31;;;;;;;7.90;5.60;;;;;20.90;101412.00;;;;2050141;28;20995;-61
2024/01/29 02:45:31;;;;;;;8.73;6.00;;;;;20.90;101417.00;;;;2060451;28;20230;-61
2024/01/29 02:46:31;;;;;;;8.70;5.83;;;;;20.90;101417.00;;;;2061313;28;20223;-61
2024/01/29 02:47:32;;;;;;;8.40;5.77;;;;;20.90;101416.00;;;;2057835;28;20234;-61
2024/01/29 02:48:32;;;;;;;7.60;4.97;;;;;20.90;101407.00;;;;2061173;28;20253;-61
2024/01/29 02:49:33;;;;;;;7.17;4.93;;;;;20.90;101428.00;;;;2047303;28;20291;-61
2024/01/29 02:50:33;;;;;;;7.17;4.83;;;;;20.90;101417.00;;;;2057701;28;20223;-61
2024/01/29 02:51:33;;;;;;;8.67;5.10;;;;;20.90;101413.00;;;;2058168;28;20300;-61
2024/01/29 02:52:34;;;;;;;9.40;5.13;;;;;20.90;101419.00;;;;2060765;28;20631;-61
2024/01/29 02:53:34;;;;;;;7.17;4.80;;;;;20.90;101426.00;;;;2059519;28;20938;-61
2024/01/29 02:54:34;;;;;;;8.63;5.50;;;;;20.90;101425.00;;;;2047611;28;20231;-61
2024/01/29 02:55:35;;;;;;;8.20;5.53;;;;;20.90;101419.00;;;;2048053;28;20282;-61
2024/01/29 02:56:35;;;;;;;7.80;4.90;;;;;20.90;101417.00;;;;2051883;28;20227;-61
2024/01/29 02:57:35;;;;;;;8.10;5.30;;;;;20.80;101413.00;;;;2060745;28;20229;-61
2024/01/29 02:58:36;;;;;;;7.70;5.00;;;;;20.90;101414.00;;;;2058365;28;20227;-62
2024/01/29 02:59:36;;;;;;;7.20;4.80;;;;;20.80;101419.00;;;;2055710;28;20738;-61
2024/01/29 03:00:36;;;;;;;6.20;4.50;;;;;20.90;101416.00;;;;2060697;28;20856;-61
2024/01/29 03:01:37;;;;;;;7.70;4.80;;;;;20.90;101414.00;;;;2060156;28;20647;-61
2024/01/29 03:02:37;;;;;;;7.60;5.40;;;;;20.80;101436.00;;;;2064456;28;20228;-61
2024/01/29 03:03:37;;;;;;;8.90;4.90;;;;;20.80;101418.00;;;;2051284;28;20988;-62
2024/01/29 03:04:38;;;;;;;7.00;4.60;;;;;20.80;101411.00;;;;2060118;28;20584;-61
2024/01/29 03:05:38;;;;;;;6.80;4.87;;;;;20.80;101419.00;;;;2058170;28;20851;-60
2024/01/29 03:07:14;;;;;;;7.50;4.90;;;;;20.80;101409.00;;;;2059447;28;20777;-61
2024/01/29 03:08:14;;;;;;;5.75;4.00;;;;;20.80;101421.00;;;;2050669;28;20227;-61
2024/01/29 03:09:15;;;;;;;7.30;4.60;;;;;20.80;101417.00;;;;2051197;28;20211;-61
2024/01/29 03:10:15;;;;;;;6.63;4.67;;;;;20.80;101419.00;;;;2059705;28;20219;-61
2024/01/29 03:11:15;;;;;;;7.20;4.67;;;;;20.80;101418.00;;;;2060732;28;20273;-61
2024/01/29 03:12:16;;;;;;;6.73;4.60;;;;;20.80;101418.00;;;;2056615;28;20238;-61
2024/01/29 03:13:16;;;;;;;6.90;4.67;;;;;20.80;101420.00;;;;2061172;28;20281;-61
2024/01/29 03:14:16;;;;;;;7.20;4.53;;;;;20.80;101425.00;;;;2051166;28;20245;-61
2024/01/29 03:15:17;;;;;;;7.73;4.83;;;;;20.80;101423.00;;;;2059324;28;20225;-61
2024/01/29 03:16:17;;;;;;;7.93;4.77;;;;;20.80;101422.00;;;;2061216;28;20242;-61
2024/01/29 03:17:18;;;;;;;6.50;4.47;;;;;20.80;101415.00;;;;2060277;28;20206;-61
2024/01/29 03:18:18;;;;;;;6.03;4.03;;;;;20.80;101426.00;;;;2061121;28;20210;-61
2024/01/29 03:19:18;;;;;;;7.80;4.13;;;;;20.80;101419.00;;;;2049872;28;20234;-61
2024/01/29 03:20:19;;;;;;;6.57;4.20;;;;;20.80;101422.00;;;;2060932;28;20215;-61
2024/01/29 03:21:19;;;;;;;6.73;4.20;;;;;20.80;101424.00;;;;2061012;28;20814;-61
2024/01/29 03:22:19;;;;;;;7.53;4.23;;;;;20.80;101423.00;;;;2063795;28;20982;-61
2024/01/29 03:23:20;;;;;;;6.50;4.10;;;;;20.80;101433.00;;;;2051886;28;20600;-61
2024/01/29 03:24:20;;;;;;;6.27;4.20;;;;;20.80;101424.00;;;;2041844;28;20248;-61
2024/01/29 03:25:20;;;;;;;6.80;3.97;;;;;20.80;101419.00;;;;2059797;28;20818;-61
2024/01/29 03:26:21;;;;;;;5.83;3.93;;;;;20.80;101423.00;;;;2060533;28;20222;-61
2024/01/29 03:27:21;;;;;;;6.63;4.17;;;;;20.80;101427.00;;;;2061119;28;20223;-61
2024/01/29 03:28:21;;;;;;;6.80;4.43;;;;;20.80;101420.00;;;;2061089;28;20223;-61
2024/01/29 03:29:22;;;;;;;6.33;4.17;;;;;20.80;101413.00;;;;2050781;28;20305;-61
2024/01/29 03:30:22;;;;;;;6.47;4.33;;;;;20.80;101427.00;;;;2052564;28;20215;-61
2024/01/29 03:31:22;;;;;;;5.90;3.90;;;;;20.80;101421.00;;;;2051522;28;20714;-61
2024/01/29 03:32:23;;;;;;;6.70;4.00;;;;;20.80;101428.00;;;;2052402;28;20211;-61
2024/01/29 03:33:23;;;;;;;7.80;4.60;;;;;20.80;101436.00;;;;2049812;28;20220;-61
2024/01/29 03:34:23;;;;;;;6.20;4.13;;;;;20.80;101424.00;;;;2049873;28;20675;-61
2024/01/29 03:35:24;;;;;;;6.77;3.73;;;;;20.70;101425.00;;;;2052433;28;20779;-61
2024/01/29 03:36:24;;;;;;;7.10;4.60;;;;;20.80;101427.00;;;;2048869;28;20856;-61
2024/01/29 03:37:25;;;;;;;5.20;3.30;;;;;20.80;101420.00;;;;2059849;28;20605;-61
2024/01/29 03:38:25;;;;;;;5.33;3.40;;;;;20.70;101424.00;;;;2060105;28;20570;-61
2024/01/29 03:39:25;;;;;;;7.00;4.00;;;;;20.80;101423.00;;;;2041205;28;20234;-61
2024/01/29 03:40:26;;;;;;;7.00;3.50;;;;;20.80;101421.00;;;;2050639;28;20235;-61
2024/01/29 03:41:26;;;;;;;6.87;3.97;;;;;20.70;101419.00;;;;2057232;28;20226;-61
2024/01/29 03:42:26;;;;;;;5.00;3.63;;;;;20.70;101414.00;;;;2059066;28;20225;-61
2024/01/29 03:43:27;;;;;;;6.30;3.60;;;;;20.70;101414.00;;;;2059256;28;20235;-60
2024/01/29 03:44:27;;;;;;;6.63;4.33;;;;;20.70;101418.00;;;;2040565;28;20207;-61
2024/01/29 03:45:27;;;;;;;5.60;3.57;;;;;20.70;101414.00;;;;2051084;28;20267;-61
2024/01/29 03:46:28;;;;;;;6.10;4.80;;;;;20.70;101419.00;;;;2060891;28;20234;-61
2024/01/29 03:47:28;;;;;;;5.07;3.37;;;;;20.70;101419.00;;;;2052316;28;20211;-61
2024/01/29 03:48:28;;;;;;;5.97;3.70;;;;;20.70;101415.00;;;;2054874;28;20214;-61
2024/01/29 03:49:29;;;;;;;6.10;3.70;;;;;20.70;101416.00;;;;2034558;29;20244;-61
2024/01/29 03:50:29;;;;;;;5.23;3.53;;;;;20.70;101419.00;;;;2043462;28;20223;-61
2024/01/29 03:51:29;;;;;;;5.23;3.20;;;;;20.70;101433.00;;;;2060227;28;20604;-61
2024/01/29 03:52:30;;;;;;;5.50;3.67;;;;;20.70;101438.00;;;;2059771;28;21201;-61
2024/01/29 03:53:30;;;;;;;5.40;3.50;;;;;20.00;101438.00;;;;2060687;28;20745;-61
2024/01/29 03:54:30;;;;;;;5.13;3.57;;;;;20.70;101423.00;;;;2049695;28;20707;-61
2024/01/29 03:55:31;;;;;;;7.53;3.70;;;;;20.70;101423.00;;;;2060442;28;20765;-61
2024/01/29 03:56:31;;;;;;;5.30;3.33;;;;;20.70;101419.00;;;;2058884;28;20348;-61
2024/01/29 03:57:32;;;;;;;5.00;3.43;;;;;20.70;101426.00;;;;2058589;28;20309;-61
2024/01/29 03:58:32;;;;;;;5.77;3.30;;;;;20.70;101426.00;;;;2060641;28;20214;-60
2024/01/29 03:59:34;;;;;;;5.47;3.63;;;;;20.70;101417.00;;;;2049555;28;20245;-61
2024/01/29 04:00:35;;;;;;;6.18;3.88;;;;;20.70;101426.00;;;;2054799;28;20223;-60
2024/01/29 04:01:35;;;;;;;5.90;3.80;;;;;20.70;101421.00;;;;2054986;28;20254;-61
2024/01/29 04:02:35;;;;;;;5.57;3.63;;;;;20.70;101430.00;;;;2060130;28;20215;-61
2024/01/29 04:03:38;;;;;;;4.30;2.93;;;;;20.70;101426.00;;;;2059143;28;20218;-65
2024/01/29 04:04:38;;;;;;;4.50;2.85;;;;;20.70;101431.00;;;;2057596;28;20687;-61
2024/01/29 04:05:39;;;;;;;5.43;3.60;;;;;20.70;101427.00;;;;2060581;28;20223;-61
2024/01/29 04:06:39;;;;;;;4.73;3.30;;;;;20.70;101424.00;;;;2060454;28;21838;-61
2024/01/29 04:07:39;;;;;;;5.53;3.73;;;;;20.70;101428.00;;;;2060759;28;21120;-61
2024/01/29 04:08:40;;;;;;;5.20;3.40;;;;;20.70;101423.00;;;;2050717;28;20329;-61
2024/01/29 04:09:40;;;;;;;5.10;3.20;;;;;20.70;101417.00;;;;2058376;28;20223;-61
2024/01/29 04:10:40;;;;;;;5.60;3.60;;;;;20.70;101422.00;;;;2058636;28;20226;-61
2024/01/29 04:11:41;;;;;;;4.97;3.47;;;;;20.70;101422.00;;;;2060220;28;20361;-61
2024/01/29 04:12:42;;;;;;;5.67;3.87;;;;;20.70;101413.00;;;;2061184;28;20249;-61
2024/01/29 04:13:42;;;;;;;6.15;3.30;;;;;20.70;101417.00;;;;2041124;28;20219;-61
2024/01/29 04:14:42;;;;;;;4.83;3.07;;;;;20.60;101414.00;;;;2046256;28;20219;-60
2024/01/29 04:15:43;;;;;;;4.80;2.80;;;;;20.70;101405.00;;;;2060990;28;20223;-61
2024/01/29 04:16:46;;;;;;;5.13;2.73;;;;;20.60;101422.00;;;;2054530;28;20261;-60
2024/01/29 04:17:47;;;;;;;4.80;3.55;;;;;20.70;101418.00;;;;2052676;28;20227;-61
2024/01/29 04:18:47;;;;;;;5.60;3.37;;;;;20.70;101419.00;;;;2036748;28;20311;-61
2024/01/29 04:19:47;;;;;;;4.10;2.90;;;;;20.60;101417.00;;;;2056257;28;20219;-61
2024/01/29 04:20:48;;;;;;;4.10;2.80;;;;;20.60;101418.00;;;;2053135;28;20211;-61
2024/01/29 04:21:49;;;;;;;4.93;3.00;;;;;20.60;101422.00;;;;2049790;28;20274;-61
2024/01/29 04:22:49;;;;;;;4.70;3.10;;;;;20.70;101420.00;;;;2056851;28;20222;-61
2024/01/29 04:23:49;;;;;;;4.20;2.97;;;;;20.60;101425.00;;;;2050287;28;20219;-61
2024/01/29 04:24:50;;;;;;;5.10;2.80;;;;;20.60;101423.00;;;;2058373;28;20246;-61
2024/01/29 04:25:50;;;;;;;4.30;2.93;;;;;20.60;101430.00;;;;2055777;28;20770;-61
2024/01/29 04:26:50;;;;;;;5.33;3.00;;;;;20.60;101428.00;;;;2057450;28;20698;-61
2024/01/29 04:27:51;;;;;;;4.97;3.30;;;;;20.60;101431.00;;;;2058586;28;20683;-62
2024/01/29 04:28:51;;;;;;;5.67;3.30;;;;;20.60;101431.00;;;;2050701;28;20250;-60
2024/01/29 04:29:52;;;;;;;4.27;2.90;;;;;20.60;101434.00;;;;2056106;28;20263;-61
2024/01/29 04:30:52;;;;;;;4.53;2.93;;;;;20.60;101441.00;;;;2059330;28;20249;-60
2024/01/29 04:31:52;;;;;;;3.90;2.90;;;;;20.60;101437.00;;;;2050359;28;20219;-61
2024/01/29 04:32:52;;;;;;;4.10;2.67;;;;;20.60;101437.00;;;;2048786;28;20211;-61
2024/01/29 04:33:53;;;;;;;4.80;3.13;;;;;20.60;101449.00;;;;2049011;28;20249;-62
2024/01/29 04:34:53;;;;;;;4.63;3.03;;;;;20.60;101431.00;;;;2058595;28;20953;-61
2024/01/29 04:35:53;;;;;;;4.73;2.80;;;;;20.60;101437.00;;;;2060421;28;20718;-61
2024/01/29 04:36:54;;;;;;;5.00;2.97;;;;;20.60;101439.00;;;;2052047;28;20711;-61
2024/01/29 04:37:54;;;;;;;4.60;2.80;;;;;20.60;101431.00;;;;2051398;28;20311;-61
2024/01/29 04:38:55;;;;;;;4.10;2.70;;;;;20.60;101435.00;;;;2050630;28;20658;-61
2024/01/29 04:39:55;;;;;;;4.67;3.03;;;;;20.60;101441.00;;;;2054754;28;20835;-61
2024/01/29 04:40:55;;;;;;;5.00;3.30;;;;;20.60;101437.00;;;;2057878;28;20273;-61
2024/01/29 04:41:56;;;;;;;5.60;2.90;;;;;20.60;101435.00;;;;2060279;28;20215;-61
2024/01/29 04:42:56;;;;;;;4.10;2.67;;;;;20.60;101446.00;;;;2060863;28;20249;-61
2024/01/29 04:43:56;;;;;;;4.83;2.87;;;;;20.60;101442.00;;;;2050421;28;20224;-61
2024/01/29 04:44:57;;;;;;;4.63;2.93;;;;;20.60;101441.00;;;;2058682;28;20215;-61
2024/01/29 04:45:57;;;;;;;4.40;2.83;;;;;20.60;101444.00;;;;2060822;28;20298;-61
2024/01/29 04:47:00;;;;;;;4.10;2.73;;;;;20.60;101438.00;;;;2059717;28;20218;-61
2024/01/29 04:48:00;;;;;;;4.45;3.03;;;;;20.60;101432.00;;;;2052403;28;20208;-61
2024/01/29 04:49:01;;;;;;;4.53;2.63;;;;;20.60;101446.00;;;;2033562;28;20240;-61
2024/01/29 04:50:01;;;;;;;4.60;2.63;;;;;20.60;101447.00;;;;2052087;28;20216;-61
2024/01/29 04:51:04;;;;;;;4.73;2.57;;;;;20.60;101441.00;;;;2061092;28;20718;-61
2024/01/29 04:52:05;;;;;;;4.22;2.72;;;;;20.60;101438.00;;;;2062063;28;20940;-61
2024/01/29 04:53:05;;;;;;;5.10;2.80;;;;;20.60;101440.00;;;;2062127;28;20219;-61
2024/01/29 04:54:06;;;;;;;3.90;2.70;;;;;20.50;101440.00;;;;2051951;28;20231;-61
2024/01/29 04:55:06;;;;;;;4.50;2.63;;;;;20.60;101436.00;;;;2060880;28;20272;-61
2024/01/29 04:56:07;;;;;;;4.13;2.50;;;;;20.60;101441.00;;;;2061464;28;20227;-61